Moose Lake, Canada
Current Conditions -  °F | °C
As of 4:00 AM on Thursday 27 Nov 2014 (Local Time) from CYQD Reporting Station
Clear Clear  
Wind Chill: -29°   Ceiling: Unl
Heat Index: -15°   Visibility: 15mi
Dew Point: -20°   Wind: 6mph
Humidity: 77%   Direction: 180°S
Pressure: 30.3"   Gusts: NA
Location:  53.7°N, 100.3°W
Report Text: CYQD 271000Z 18005KT 15SM SKC M26/M29 A3030 RMK SLP297
Loading
Personal Weather Stations






























Interactive Weather Map New forecast layout! Learn more

10-Day Weather Forecast

Advertisements
Track Severe Weather on mobile